createdAt,value
2024-01-18T00:00:48.097Z,94962.28
2024-01-18T00:05:49.846Z,94971.69
2024-01-18T00:10:51.531Z,94980.16
2024-01-18T00:15:53.124Z,94991.16
2024-01-18T00:20:54.802Z,94985.69
2024-01-18T00:25:56.719Z,94993.44
2024-01-18T00:30:58.525Z,94996.25
2024-01-18T00:36:00.340Z,95013.94
2024-01-18T00:41:02.067Z,95018.09
2024-01-18T00:46:05.327Z,95018.66
2024-01-18T00:51:07.088Z,95031.19
2024-01-18T00:56:11.403Z,95048.19
2024-01-18T01:01:13.255Z,95064.91
2024-01-18T01:06:15.185Z,95080.69
2024-01-18T01:11:18.155Z,95088.03
2024-01-18T01:16:22.000Z,95096.75
2024-01-18T01:21:23.767Z,95104.94
2024-01-18T01:26:25.396Z,95125.19
2024-01-18T01:31:27.056Z,95127.22
2024-01-18T01:36:28.733Z,95136.91
2024-01-18T01:41:30.830Z,95137.66
2024-01-18T01:46:32.496Z,95154.78
2024-01-18T01:51:38.141Z,95159.28
2024-01-18T01:56:39.836Z,95161.97
2024-01-18T02:01:42.861Z,95160.91
2024-01-18T02:06:46.896Z,95160.59
2024-01-18T02:11:48.833Z,95174.94
2024-01-18T02:16:50.704Z,95179.16
2024-01-18T02:21:52.468Z,95192.38
2024-01-18T02:26:54.091Z,95189.75
2024-01-18T02:31:57.778Z,95203.50
2024-01-18T02:36:59.472Z,95206.16
2024-01-18T02:42:03.111Z,95225.22
2024-01-18T02:47:05.138Z,95234.13
2024-01-18T02:52:07.188Z,95221.69
2024-01-18T02:57:08.807Z,95224.75
2024-01-18T03:02:10.436Z,95224.19
2024-01-18T03:07:12.155Z,95223.56
2024-01-18T03:12:13.941Z,95226.16
2024-01-18T03:17:15.564Z,95254.13
2024-01-18T03:22:17.443Z,95255.22
2024-01-18T03:27:21.192Z,95266.72
2024-01-18T03:32:23.629Z,95266.44
2024-01-18T03:37:25.295Z,95274.28
2024-01-18T03:42:26.964Z,95265.41
2024-01-18T03:47:28.561Z,95262.22
2024-01-18T03:52:30.266Z,95271.97
2024-01-18T03:57:32.280Z,95282.97
2024-01-18T04:02:33.937Z,95293.50
2024-01-18T04:07:37.093Z,95308.00
2024-01-18T04:12:39.142Z,95313.09
2024-01-18T04:17:40.907Z,95301.50
2024-01-18T04:22:46.289Z,95308.72
2024-01-18T04:27:48.081Z,95303.75
2024-01-18T04:32:49.803Z,95300.28
2024-01-18T04:37:51.575Z,95322.72
2024-01-18T04:42:54.042Z,95345.66
2024-01-18T04:47:57.514Z,95342.63
2024-01-18T04:53:01.322Z,95331.00
2024-01-18T04:58:03.321Z,95348.38
2024-01-18T05:03:05.249Z,95358.22
2024-01-18T05:08:08.514Z,95372.09
2024-01-18T05:13:10.452Z,95363.34
2024-01-18T05:18:12.196Z,95358.41
2024-01-18T05:23:13.888Z,95378.81
2024-01-18T05:28:15.504Z,95374.97
2024-01-18T05:33:17.174Z,95385.78
2024-01-18T05:38:18.841Z,95368.41
2024-01-18T05:43:20.528Z,95384.19
2024-01-18T05:48:22.469Z,95388.00
2024-01-18T05:53:24.140Z,95389.44
2024-01-18T05:58:27.011Z,95388.16
2024-01-18T06:03:29.056Z,95393.91
2024-01-18T06:08:30.719Z,95381.47
2024-01-18T06:13:32.383Z,95396.41
2024-01-18T06:18:34.266Z,95409.13
2024-01-18T06:23:39.602Z,95410.59
2024-01-18T06:28:41.562Z,95400.88
2024-01-18T06:33:43.340Z,95426.63
2024-01-18T06:38:45.060Z,95425.03
2024-01-18T06:43:47.426Z,95416.63
2024-01-18T06:48:54.948Z,95404.81
2024-01-18T06:53:57.020Z,95424.38
2024-01-18T06:58:58.732Z,95435.19
2024-01-18T07:04:00.538Z,95446.00
2024-01-18T07:09:02.374Z,95427.84
2024-01-18T07:14:04.101Z,95441.06
2024-01-18T07:19:06.118Z,95452.78
2024-01-18T07:24:07.961Z,95458.88
2024-01-18T07:29:10.212Z,95435.19
2024-01-18T07:34:11.940Z,95431.16
2024-01-18T07:39:13.734Z,95445.19
2024-01-18T07:44:17.728Z,95452.72
2024-01-18T07:49:19.400Z,95422.78
2024-01-18T07:54:21.051Z,95427.53
2024-01-18T07:59:23.005Z,95434.34
2024-01-18T08:04:24.848Z,95436.44
2024-01-18T08:09:26.957Z,95455.59
2024-01-18T08:14:28.674Z,95490.19
2024-01-18T08:19:30.410Z,95490.94
2024-01-18T08:24:32.311Z,95503.69
2024-01-18T08:29:34.058Z,95503.34
2024-01-18T08:34:36.608Z,95501.13
2024-01-18T08:39:38.213Z,95493.16
2024-01-18T08:44:46.975Z,95506.28
2024-01-18T08:49:49.041Z,95504.72
2024-01-18T08:54:50.849Z,95511.91
2024-01-18T08:59:52.509Z,95521.75
2024-01-18T09:04:54.416Z,95527.19
2024-01-18T09:09:56.112Z,95534.78
2024-01-18T09:14:57.811Z,95541.19
2024-01-18T09:19:59.748Z,95551.25
2024-01-18T09:25:01.849Z,95559.22
2024-01-18T09:30:03.757Z,95570.38
2024-01-18T09:35:06.826Z,95579.03
2024-01-18T09:40:12.930Z,95592.41
2024-01-18T09:45:17.490Z,95593.94
2024-01-18T09:50:21.147Z,95590.09
2024-01-18T09:55:22.928Z,95584.47
2024-01-18T10:00:30.352Z,95593.13
2024-01-18T10:05:32.117Z,95602.13
2024-01-18T10:10:33.848Z,95620.47
2024-01-18T10:15:36.660Z,95612.66
2024-01-18T10:20:38.591Z,95611.06
2024-01-18T10:25:41.147Z,95608.81
2024-01-18T10:30:43.166Z,95620.28
2024-01-18T10:35:45.272Z,95611.41
2024-01-18T10:40:51.613Z,95622.56
2024-01-18T10:45:53.817Z,95626.81
2024-01-18T10:50:58.843Z,95618.63
2024-01-18T10:56:02.124Z,95619.31
2024-01-18T11:01:05.747Z,95601.16
2024-01-18T11:06:11.297Z,95617.06
2024-01-18T11:11:13.746Z,95629.97
2024-01-18T11:16:15.720Z,95629.97
2024-01-18T11:21:17.472Z,95627.78
2024-01-18T11:26:21.901Z,95634.16
2024-01-18T11:31:47.411Z,95640.31
2024-01-18T11:36:49.356Z,95641.31
2024-01-18T11:41:52.575Z,95636.69
2024-01-18T11:46:54.429Z,95642.97
2024-01-18T11:51:59.404Z,95645.47
2024-01-18T11:57:07.645Z,95662.84
2024-01-18T12:02:11.385Z,95670.38
2024-01-18T12:07:13.604Z,95676.38
2024-01-18T12:12:15.525Z,95670.63
2024-01-18T12:17:18.094Z,95683.28
2024-01-18T12:22:20.757Z,95695.47
2024-01-18T12:27:22.612Z,95706.13
2024-01-18T12:32:24.414Z,95698.25
2024-01-18T12:37:26.196Z,95705.38
2024-01-18T12:42:27.921Z,95704.84
2024-01-18T12:47:29.618Z,95705.41
2024-01-18T12:52:32.375Z,95720.25
2024-01-18T12:57:34.424Z,95718.56
2024-01-18T13:02:36.672Z,95729.19
2024-01-18T13:07:38.502Z,95749.34
2024-01-18T13:12:40.516Z,95761.91
2024-01-18T13:17:43.555Z,95768.38
2024-01-18T13:22:45.273Z,95764.28
2024-01-18T13:27:47.008Z,95785.53
2024-01-18T13:32:49.244Z,95819.59
2024-01-18T13:37:50.860Z,95819.38
2024-01-18T13:42:52.564Z,95835.72
2024-01-18T13:47:54.349Z,95823.34
2024-01-18T13:52:56.107Z,95832.72
2024-01-18T13:57:58.357Z,95853.50
2024-01-18T14:03:00.003Z,95863.25
2024-01-18T14:08:02.101Z,95878.19
2024-01-18T14:13:05.014Z,95877.34
2024-01-18T14:18:07.916Z,95894.94
2024-01-18T14:23:09.521Z,95909.25
2024-01-18T14:28:13.120Z,95932.47
2024-01-18T14:33:15.113Z,95933.06
2024-01-18T14:38:17.021Z,95951.72
2024-01-18T14:43:19.831Z,95964.31
2024-01-18T14:48:21.648Z,95978.00
2024-01-18T14:53:23.375Z,96000.00
2024-01-18T14:58:24.957Z,96005.63
2024-01-18T15:03:26.659Z,96001.44
2024-01-18T15:08:28.433Z,96032.66
2024-01-18T15:13:30.092Z,96035.41
2024-01-18T15:18:31.947Z,96053.09
2024-01-18T15:23:33.689Z,96046.72
2024-01-18T15:28:36.732Z,96064.34
2024-01-18T15:33:41.796Z,96085.25
2024-01-18T15:38:43.559Z,96103.34
2024-01-18T15:43:45.228Z,96109.38
2024-01-18T15:48:46.983Z,96119.69
2024-01-18T15:53:48.819Z,96140.84
2024-01-18T15:58:50.473Z,96144.47
2024-01-18T16:03:52.299Z,96159.91
2024-01-18T16:08:54.134Z,96180.94
2024-01-18T16:13:56.013Z,96193.66
2024-01-18T16:18:57.944Z,96202.78
2024-01-18T16:23:59.883Z,96212.28
2024-01-18T16:29:01.723Z,96216.44
2024-01-18T16:34:03.783Z,96229.53
2024-01-18T16:39:10.213Z,96245.25
2024-01-18T16:44:13.614Z,96250.84
2024-01-18T16:49:18.783Z,96267.47
2024-01-18T16:54:22.946Z,96276.63
2024-01-18T16:59:24.879Z,96294.47
2024-01-18T17:04:26.863Z,96301.31
2024-01-18T17:09:28.696Z,96313.09
2024-01-18T17:14:30.565Z,96316.59
2024-01-18T17:19:32.454Z,96327.59
2024-01-18T17:24:34.502Z,96334.94
2024-01-18T17:29:36.371Z,96362.88
2024-01-18T17:34:38.363Z,96368.50
2024-01-18T17:39:40.811Z,96384.88
2024-01-18T17:44:43.200Z,96384.47
2024-01-18T17:49:45.820Z,96398.03
2024-01-18T17:54:47.769Z,96412.13
2024-01-18T17:59:50.926Z,96439.75
2024-01-18T18:04:53.028Z,96456.50
2024-01-18T18:09:54.842Z,96467.78
2024-01-18T18:14:56.864Z,96497.13
2024-01-18T18:19:58.746Z,96510.63
2024-01-18T18:25:00.897Z,96509.38
2024-01-18T18:30:02.915Z,96519.09
2024-01-18T18:35:05.122Z,96525.97
2024-01-18T18:40:08.816Z,96554.06
2024-01-18T18:45:10.765Z,96556.41
2024-01-18T18:50:13.702Z,96561.06
2024-01-18T18:55:17.305Z,96572.88
2024-01-18T19:00:19.376Z,96597.38
2024-01-18T19:05:23.475Z,96609.50
2024-01-18T19:10:25.632Z,96616.09
2024-01-18T19:15:29.777Z,96630.94
2024-01-18T19:20:31.751Z,96639.31
2024-01-18T19:25:33.743Z,96640.06
2024-01-18T19:30:35.838Z,96655.53
2024-01-18T19:35:37.739Z,96668.53
2024-01-18T19:40:39.840Z,96668.53
2024-01-18T19:45:41.867Z,96678.66
2024-01-18T19:50:46.029Z,96697.22
2024-01-18T19:55:48.509Z,96704.34
2024-01-18T20:00:51.404Z,96721.03
2024-01-18T20:05:56.294Z,96727.06
2024-01-18T20:10:58.865Z,96729.38
2024-01-18T20:16:00.766Z,96747.22
2024-01-18T20:21:02.710Z,96751.44
2024-01-18T20:26:09.852Z,96758.81
2024-01-18T20:31:11.827Z,96770.09
2024-01-18T20:36:14.792Z,96776.66
2024-01-18T20:41:16.816Z,96784.66
2024-01-18T20:46:19.072Z,96808.28
2024-01-18T20:51:21.130Z,96822.28
2024-01-18T20:56:23.038Z,96820.19
2024-01-18T21:01:25.263Z,96830.00
2024-01-18T21:06:27.606Z,96847.84
2024-01-18T21:11:29.595Z,96850.34
2024-01-18T21:16:31.422Z,96868.06
2024-01-18T21:21:33.441Z,96880.56
2024-01-18T21:26:35.525Z,96888.78
2024-01-18T21:31:37.491Z,96905.34
2024-01-18T21:36:39.618Z,96902.91
2024-01-18T21:41:43.080Z,96920.75
2024-01-18T21:46:46.238Z,96927.25
2024-01-18T21:51:49.268Z,96943.22
2024-01-18T21:56:51.263Z,96954.00
2024-01-18T22:01:53.425Z,96967.56
2024-01-18T22:06:55.505Z,96974.84
2024-01-18T22:11:57.248Z,96988.41
2024-01-18T22:16:58.892Z,96996.31
2024-01-18T22:22:00.726Z,97004.91
2024-01-18T22:27:02.324Z,97008.25
2024-01-18T22:32:04.236Z,97018.19
2024-01-18T22:37:05.843Z,97035.59
2024-01-18T22:42:09.826Z,97044.66
2024-01-18T22:47:12.052Z,97045.47
2024-01-18T22:52:13.736Z,97063.66
2024-01-18T22:57:15.439Z,97059.94
2024-01-18T23:02:18.060Z,97075.69
2024-01-18T23:07:19.763Z,97077.75
2024-01-18T23:12:21.344Z,97076.16
2024-01-18T23:17:22.992Z,97070.97
2024-01-18T23:22:24.623Z,97069.44
2024-01-18T23:27:26.515Z,97079.41
2024-01-18T23:32:29.237Z,97086.69
2024-01-18T23:37:30.899Z,97080.44
2024-01-18T23:42:32.836Z,97075.94
2024-01-18T23:47:34.521Z,97092.59
2024-01-18T23:52:36.162Z,97105.34
2024-01-18T23:57:37.856Z,97106.63
